Kitzville, Minnesota
Current Conditions -  °F | °C
As of 10:53 AM on Saturday 20 Dec 2014 (Local Time) from KHIB Reporting Station
Haze Haze  
Wind Chill: 24°   Ceiling: 500
Heat Index: 29°   Visibility: 4mi
Dew Point: 26°   Wind: 5mph
Humidity: 89%   Direction: 180°S
Pressure: 30.07"   Gusts: NA
Location:  47.4158°N, 93.0053°W
Report Text: KHIB 201653Z AUTO 18004KT 4SM BR OVC005 M02/M03 A3007 RMK AO2 SNB1559E19 SLP204 P0000 T10171033
Loading
Personal Weather Stations






























Interactive Weather Map New forecast layout! Learn more

10-Day Weather Forecast

Advertisements
Track Severe Weather on mobile